createdAt,value
2023-01-21T00:14:05.621Z,-2.3
2023-01-21T00:29:05.696Z,-2.4
2023-01-21T00:44:05.594Z,-2.5
2023-01-21T00:59:05.712Z,-2.6
2023-01-21T01:14:05.604Z,-2.6
2023-01-21T01:29:05.726Z,-2.7
2023-01-21T01:44:05.671Z,-2.8
2023-01-21T01:59:05.687Z,-2.7
2023-01-21T02:14:05.622Z,-2.8
2023-01-21T02:29:05.690Z,-2.8
2023-01-21T02:44:05.624Z,-2.9
2023-01-21T02:59:05.691Z,-3
2023-01-21T03:14:05.605Z,-3.1
2023-01-21T03:29:05.687Z,-3.1
2023-01-21T03:44:05.596Z,-3.1
2023-01-21T03:59:05.663Z,-3.2
2023-01-21T04:14:05.596Z,-3.3
2023-01-21T04:29:05.717Z,-3.3
2023-01-21T04:44:05.635Z,-3.4
2023-01-21T04:59:05.730Z,-3.4
2023-01-21T05:14:05.688Z,-3.5
2023-01-21T05:29:05.695Z,-3.5
2023-01-21T05:44:05.697Z,-3.6
2023-01-21T05:59:05.681Z,-3.5
2023-01-21T06:14:05.622Z,-3.7
2023-01-21T06:29:05.691Z,-3.9
2023-01-21T06:44:05.639Z,-4.1
2023-01-21T06:59:05.698Z,-4.1
2023-01-21T07:14:05.592Z,-4.1
2023-01-21T07:29:05.680Z,-4.1
2023-01-21T07:44:05.631Z,-4.4
2023-01-21T07:59:05.718Z,-4.2
2023-01-21T08:14:05.640Z,-4.2
2023-01-21T08:29:05.691Z,-4.2
2023-01-21T08:44:05.643Z,-3.8
2023-01-21T08:59:05.693Z,-3.7
2023-01-21T09:14:05.667Z,-3.6
2023-01-21T09:29:05.726Z,-3.4
2023-01-21T09:44:05.697Z,-3.2
2023-01-21T09:59:05.730Z,-3
2023-01-21T10:14:05.607Z,-3
2023-01-21T10:29:05.715Z,-2.6
2023-01-21T10:44:05.620Z,-2.2
2023-01-21T10:59:05.670Z,-1.9
2023-01-21T11:14:05.727Z,-1.7
2023-01-21T11:29:06.981Z,-1.6
2023-01-21T11:44:05.635Z,-1.4
2023-01-21T11:59:05.693Z,-1.2
2023-01-21T12:14:05.628Z,-1.2
2023-01-21T12:44:05.632Z,-1.2
2023-01-21T12:59:05.711Z,-1
2023-01-21T13:14:05.603Z,-0.8
2023-01-21T13:29:05.726Z,-0.6
2023-01-21T13:44:05.623Z,-0.5
2023-01-21T13:59:05.596Z,-0.6
2023-01-21T14:14:05.667Z,-0.7
2023-01-21T14:29:05.720Z,-0.8
2023-01-21T14:44:05.601Z,-0.8
2023-01-21T14:59:05.721Z,-0.8
2023-01-21T15:14:05.696Z,-0.8
2023-01-21T15:29:05.704Z,-0.8
2023-01-21T15:44:05.643Z,-0.8
2023-01-21T15:59:05.721Z,-0.7
2023-01-21T16:14:05.630Z,-0.7
2023-01-21T16:29:05.685Z,-0.7
2023-01-21T16:44:05.736Z,-0.7
2023-01-21T16:59:05.727Z,-0.6
2023-01-21T17:14:05.620Z,-0.6
2023-01-21T17:29:05.723Z,-0.6
2023-01-21T17:44:05.652Z,-0.6
2023-01-21T17:59:05.695Z,-0.6
2023-01-21T18:14:05.722Z,-0.8
2023-01-21T18:29:05.728Z,-1.1
2023-01-21T18:44:05.694Z,-1.4
2023-01-21T18:59:05.705Z,-1.4
2023-01-21T19:14:05.598Z,-1.6
2023-01-21T19:29:05.715Z,-1.8
2023-01-21T19:44:05.620Z,-1.8
2023-01-21T19:59:05.610Z,-1.6
2023-01-21T20:14:05.627Z,-1.4
2023-01-21T20:29:05.693Z,-1.2
2023-01-21T20:44:05.600Z,-1.3
2023-01-21T20:59:09.701Z,-1.4
2023-01-21T21:14:05.636Z,-1.2
2023-01-21T21:29:05.622Z,-1.4
2023-01-21T21:44:05.653Z,-1.5
2023-01-21T21:59:05.697Z,-1.6
2023-01-21T22:14:05.633Z,-1.6
2023-01-21T22:29:05.751Z,-1.6
2023-01-21T22:44:05.629Z,-1.6
2023-01-21T22:59:05.635Z,-1.5
2023-01-21T23:14:05.661Z,-1.6
2023-01-21T23:29:05.606Z,-1.6
2023-01-21T23:44:05.597Z,-1.7
2023-01-21T23:59:05.686Z,-1.7
